createdAt,value
2023-03-15T00:01:46.527Z,100720.25
2023-03-15T00:04:13.895Z,100713.34
2023-03-15T00:06:40.960Z,100716.47
2023-03-15T00:09:07.654Z,100719.34
2023-03-15T00:11:34.228Z,100720.13
2023-03-15T00:14:02.415Z,100723.50
2023-03-15T00:16:29.080Z,100720.22
2023-03-15T00:18:56.397Z,100723.16
2023-03-15T00:21:23.417Z,100730.94
2023-03-15T00:23:50.235Z,100732.50
2023-03-15T00:26:17.371Z,100745.66
2023-03-15T00:28:44.087Z,100737.28
2023-03-15T00:31:16.907Z,100744.63
2023-03-15T00:33:44.083Z,100737.09
2023-03-15T00:36:12.580Z,100739.50
2023-03-15T00:38:42.848Z,100744.19
2023-03-15T00:41:15.490Z,100744.28
2023-03-15T00:43:42.829Z,100744.63
2023-03-15T00:46:09.834Z,100753.72
2023-03-15T00:48:36.599Z,100758.78
2023-03-15T00:51:11.873Z,100756.56
2023-03-15T00:53:40.602Z,100765.13
2023-03-15T00:56:10.216Z,100759.00
2023-03-15T00:58:37.949Z,100766.28
2023-03-15T01:01:14.429Z,100758.56
2023-03-15T01:03:41.966Z,100763.59
2023-03-15T01:06:13.583Z,100758.56
2023-03-15T01:08:41.200Z,100753.25
2023-03-15T01:11:10.889Z,100769.59
2023-03-15T01:13:37.991Z,100764.09
2023-03-15T01:16:05.612Z,100761.47
2023-03-15T01:18:32.251Z,100760.03
2023-03-15T01:20:59.645Z,100765.53
2023-03-15T01:23:26.556Z,100767.75
2023-03-15T01:25:53.095Z,100768.94
2023-03-15T01:28:19.606Z,100769.16
2023-03-15T01:30:52.853Z,100758.97
2023-03-15T01:33:20.118Z,100757.53
2023-03-15T01:35:47.017Z,100773.19
2023-03-15T01:38:14.090Z,100781.38
2023-03-15T01:40:45.637Z,100774.97
2023-03-15T01:43:20.860Z,100773.19
2023-03-15T01:45:50.514Z,100774.44
2023-03-15T01:48:17.325Z,100780.56
2023-03-15T01:50:44.430Z,100775.81
2023-03-15T01:53:12.041Z,100783.00
2023-03-15T01:55:39.194Z,100791.16
2023-03-15T01:58:06.985Z,100798.03
2023-03-15T02:00:33.948Z,100797.34
2023-03-15T02:03:08.433Z,100807.31
2023-03-15T02:05:46.038Z,100797.94
2023-03-15T02:08:17.547Z,100793.16
2023-03-15T02:10:47.956Z,100805.69
2023-03-15T02:13:19.434Z,100814.41
2023-03-15T02:15:46.739Z,100811.09
2023-03-15T02:18:14.639Z,100806.69
2023-03-15T02:20:46.309Z,100812.31
2023-03-15T02:23:15.785Z,100811.34
2023-03-15T02:25:46.931Z,100819.00
2023-03-15T02:28:15.753Z,100816.66
2023-03-15T02:30:43.380Z,100813.69
2023-03-15T02:33:20.982Z,100820.03
2023-03-15T02:35:47.442Z,100831.50
2023-03-15T02:38:13.923Z,100816.25
2023-03-15T02:40:40.858Z,100815.19
2023-03-15T02:43:14.011Z,100817.94
2023-03-15T02:45:40.911Z,100814.38
2023-03-15T02:48:08.983Z,100821.56
2023-03-15T02:50:35.565Z,100835.53
2023-03-15T02:53:03.057Z,100836.75
2023-03-15T02:55:32.743Z,100827.72
2023-03-15T02:58:00.970Z,100834.28
2023-03-15T03:00:28.635Z,100840.31
2023-03-15T03:02:55.502Z,100836.31
2023-03-15T03:05:22.267Z,100848.44
2023-03-15T03:07:50.386Z,100850.72
2023-03-15T03:10:19.689Z,100847.63
2023-03-15T03:12:46.707Z,100853.22
2023-03-15T03:15:13.659Z,100859.13
2023-03-15T03:17:40.190Z,100862.75
2023-03-15T03:20:09.536Z,100876.22
2023-03-15T03:22:37.535Z,100875.41
2023-03-15T03:25:06.274Z,100887.50
2023-03-15T03:27:36.656Z,100888.66
2023-03-15T03:30:05.143Z,100885.66
2023-03-15T03:32:31.949Z,100892.91
2023-03-15T03:34:58.512Z,100900.06
2023-03-15T03:37:25.510Z,100903.25
2023-03-15T03:39:52.314Z,100917.94
2023-03-15T03:42:18.879Z,100913.31
2023-03-15T03:44:45.326Z,100916.91
2023-03-15T03:47:11.803Z,100921.03
2023-03-15T03:49:38.247Z,100924.63
2023-03-15T03:52:05.059Z,100918.72
2023-03-15T03:54:32.112Z,100930.94
2023-03-15T03:56:58.929Z,100941.03
2023-03-15T03:59:25.453Z,100930.59
2023-03-15T04:01:52.004Z,100935.38
2023-03-15T04:04:18.511Z,100940.75
2023-03-15T04:06:46.078Z,100950.59
2023-03-15T04:09:13.902Z,100938.03
2023-03-15T04:11:44.977Z,100963.53
2023-03-15T04:14:13.781Z,100956.91
2023-03-15T04:16:41.032Z,100953.06
2023-03-15T04:19:08.162Z,100962.84
2023-03-15T04:21:35.044Z,100955.13
2023-03-15T04:24:02.620Z,100950.50
2023-03-15T04:26:29.600Z,100970.06
2023-03-15T04:28:57.750Z,100966.19
2023-03-15T04:31:28.505Z,100977.19
2023-03-15T04:33:55.670Z,100983.81
2023-03-15T04:36:23.004Z,100988.59
2023-03-15T04:38:50.071Z,100983.91
2023-03-15T04:41:18.125Z,100987.59
2023-03-15T04:43:45.120Z,100985.59
2023-03-15T04:46:11.850Z,100985.34
2023-03-15T04:48:38.307Z,100987.81
2023-03-15T04:51:04.964Z,100984.50
2023-03-15T04:53:31.483Z,100980.63
2023-03-15T04:55:58.021Z,100983.59
2023-03-15T04:58:24.488Z,100983.91
2023-03-15T05:00:53.729Z,100990.25
2023-03-15T05:03:20.432Z,100994.16
2023-03-15T05:05:46.957Z,101005.69
2023-03-15T05:08:13.438Z,101001.75
2023-03-15T05:10:39.939Z,101007.06
2023-03-15T05:13:06.547Z,101004.91
2023-03-15T05:15:33.081Z,101004.09
2023-03-15T05:17:59.582Z,101009.56
2023-03-15T05:20:26.110Z,101015.03
2023-03-15T05:22:53.436Z,101016.06
2023-03-15T05:25:19.959Z,101020.00
2023-03-15T05:27:46.551Z,101022.03
2023-03-15T05:30:16.976Z,101019.31
2023-03-15T05:32:44.916Z,101037.72
2023-03-15T05:35:13.450Z,101046.19
2023-03-15T05:37:40.285Z,101050.91
2023-03-15T05:40:11.476Z,101057.44
2023-03-15T05:42:37.942Z,101068.84
2023-03-15T05:45:04.767Z,101068.63
2023-03-15T05:47:33.172Z,101076.91
2023-03-15T05:50:00.503Z,101079.56
2023-03-15T05:52:27.059Z,101076.72
2023-03-15T05:54:53.528Z,101086.91
2023-03-15T05:57:20.086Z,101093.31
2023-03-15T05:59:46.545Z,101099.72
2023-03-15T06:02:13.008Z,101099.84
2023-03-15T06:04:39.630Z,101103.47
2023-03-15T06:07:06.116Z,101112.78
2023-03-15T06:09:32.604Z,101117.84
2023-03-15T06:11:59.369Z,101129.38
2023-03-15T06:14:27.366Z,101125.16
2023-03-15T06:16:54.098Z,101121.38
2023-03-15T06:19:21.701Z,101125.38
2023-03-15T06:21:48.588Z,101128.94
2023-03-15T06:24:15.234Z,101129.81
2023-03-15T06:26:41.766Z,101133.91
2023-03-15T06:29:08.276Z,101137.91
2023-03-15T06:31:34.742Z,101136.50
2023-03-15T06:34:01.611Z,101144.06
2023-03-15T06:36:28.124Z,101142.00
2023-03-15T06:38:54.762Z,101145.25
2023-03-15T06:41:21.497Z,101143.72
2023-03-15T06:43:48.033Z,101154.81
2023-03-15T06:46:14.611Z,101148.72
2023-03-15T06:48:42.398Z,101153.28
2023-03-15T06:51:09.292Z,101158.84
2023-03-15T06:53:35.891Z,101167.13
2023-03-15T06:56:02.367Z,101169.66
2023-03-15T06:58:28.887Z,101177.00
2023-03-15T07:00:55.366Z,101173.63
2023-03-15T07:03:22.389Z,101182.13
2023-03-15T07:05:52.427Z,101197.28
2023-03-15T07:08:19.589Z,101204.34
2023-03-15T07:10:46.679Z,101205.28
2023-03-15T07:13:13.354Z,101208.59
2023-03-15T07:15:40.221Z,101208.28
2023-03-15T07:18:07.118Z,101205.03
2023-03-15T07:20:35.597Z,101210.50
2023-03-15T07:23:03.918Z,101231.16
2023-03-15T07:25:30.363Z,101234.75
2023-03-15T07:27:56.898Z,101237.66
2023-03-15T07:30:23.429Z,101233.75
2023-03-15T07:32:50.194Z,101233.81
2023-03-15T07:35:18.114Z,101225.81
2023-03-15T07:37:44.981Z,101234.88
2023-03-15T07:40:15.393Z,101226.69
2023-03-15T07:42:42.686Z,101235.03
2023-03-15T07:45:10.218Z,101241.81
2023-03-15T07:47:36.964Z,101245.31
2023-03-15T07:50:05.487Z,101258.28
2023-03-15T07:52:31.946Z,101262.41
2023-03-15T07:54:58.496Z,101264.81
2023-03-15T07:57:26.668Z,101268.56
2023-03-15T07:59:55.072Z,101279.56
2023-03-15T08:02:21.571Z,101282.16
2023-03-15T08:04:50.695Z,101298.09
2023-03-15T08:07:17.657Z,101293.59
2023-03-15T08:09:44.338Z,101305.34
2023-03-15T08:12:13.833Z,101313.81
2023-03-15T08:14:40.260Z,101317.31
2023-03-15T08:17:06.955Z,101326.41
2023-03-15T08:19:33.413Z,101324.97
2023-03-15T08:21:59.872Z,101333.25
2023-03-15T08:24:27.062Z,101332.13
2023-03-15T08:26:53.554Z,101334.22
2023-03-15T08:29:20.028Z,101336.72
2023-03-15T08:31:46.515Z,101333.81
2023-03-15T08:34:13.311Z,101337.03
2023-03-15T08:36:39.802Z,101337.03
2023-03-15T08:39:06.288Z,101352.34
2023-03-15T08:41:32.778Z,101345.31
2023-03-15T08:43:59.239Z,101362.97
2023-03-15T08:46:26.442Z,101349.19
2023-03-15T08:48:53.230Z,101370.91
2023-03-15T08:51:21.140Z,101367.22
2023-03-15T08:53:48.229Z,101372.09
2023-03-15T08:56:14.757Z,101362.00
2023-03-15T08:58:41.601Z,101365.47
2023-03-15T09:01:10.676Z,101376.00
2023-03-15T09:03:37.113Z,101388.69
2023-03-15T09:06:03.637Z,101390.19
2023-03-15T09:08:30.202Z,101384.78
2023-03-15T09:10:57.396Z,101392.88
2023-03-15T09:13:24.524Z,101398.66
2023-03-15T09:15:54.967Z,101400.53
2023-03-15T09:18:22.257Z,101383.56
2023-03-15T09:20:48.725Z,101394.25
2023-03-15T09:23:15.327Z,101397.63
2023-03-15T09:25:42.139Z,101393.88
2023-03-15T09:28:11.405Z,101407.72
2023-03-15T09:30:39.822Z,101405.72
2023-03-15T09:33:07.573Z,101417.28
2023-03-15T09:35:34.163Z,101409.47
2023-03-15T09:38:00.969Z,101398.75
2023-03-15T09:40:33.219Z,101405.22
2023-03-15T09:43:14.956Z,101414.56
2023-03-15T09:45:54.068Z,101421.47
2023-03-15T09:48:28.043Z,101420.16
2023-03-15T09:51:03.158Z,101419.19
2023-03-15T09:53:51.053Z,101419.56
2023-03-15T09:56:26.242Z,101419.63
2023-03-15T09:58:56.404Z,101422.13
2023-03-15T10:01:45.761Z,101416.88
2023-03-15T10:04:29.703Z,101415.81
2023-03-15T10:07:02.846Z,101423.75
2023-03-15T10:09:33.758Z,101419.03
2023-03-15T10:12:10.130Z,101421.03
2023-03-15T10:14:51.844Z,101425.50
2023-03-15T10:17:32.847Z,101425.22
2023-03-15T10:20:04.267Z,101426.69
2023-03-15T10:22:45.649Z,101422.66
2023-03-15T10:25:12.183Z,101425.59
2023-03-15T10:27:56.052Z,101415.81
2023-03-15T10:30:28.721Z,101410.00
2023-03-15T10:33:02.035Z,101408.72
2023-03-15T10:35:28.880Z,101407.66
2023-03-15T10:37:55.378Z,101404.03
2023-03-15T10:40:42.004Z,101417.56
2023-03-15T10:43:20.622Z,101414.88
2023-03-15T10:45:59.205Z,101409.56
2023-03-15T10:48:27.110Z,101413.00
2023-03-15T10:50:54.885Z,101419.69
2023-03-15T10:53:22.119Z,101417.41
2023-03-15T10:55:49.256Z,101427.72
2023-03-15T10:58:18.399Z,101419.97
2023-03-15T11:01:12.954Z,101425.97
2023-03-15T11:03:41.646Z,101417.25
2023-03-15T11:06:21.394Z,101431.03
2023-03-15T11:08:47.877Z,101422.97
2023-03-15T11:11:14.437Z,101431.06
2023-03-15T11:13:42.129Z,101432.75
2023-03-15T11:16:21.428Z,101433.44
2023-03-15T11:19:03.573Z,101431.78
2023-03-15T11:21:36.772Z,101427.16
2023-03-15T11:24:05.942Z,101438.66
2023-03-15T11:26:36.017Z,101446.94
2023-03-15T11:29:18.929Z,101454.88
2023-03-15T11:31:45.608Z,101457.56
2023-03-15T11:34:25.357Z,101457.25
2023-03-15T11:37:07.482Z,101462.75
2023-03-15T11:39:45.232Z,101454.97
2023-03-15T11:42:22.998Z,101465.56
2023-03-15T11:44:55.112Z,101454.88
2023-03-15T11:47:43.335Z,101471.78
2023-03-15T11:50:14.582Z,101463.16
2023-03-15T11:52:42.923Z,101464.16
2023-03-15T11:55:26.601Z,101460.34
2023-03-15T11:57:54.302Z,101456.41
2023-03-15T12:00:41.295Z,101459.59
2023-03-15T12:03:44.282Z,101457.03
2023-03-15T12:06:16.688Z,101448.03
2023-03-15T12:08:50.311Z,101453.50
2023-03-15T12:11:19.978Z,101452.00
2023-03-15T12:13:58.419Z,101448.47
2023-03-15T12:16:30.490Z,101441.19
2023-03-15T12:19:09.751Z,101455.66
2023-03-15T12:21:43.626Z,101459.09
2023-03-15T12:24:24.053Z,101452.88
2023-03-15T12:27:01.380Z,101449.25
2023-03-15T12:29:30.151Z,101448.13
2023-03-15T12:32:02.678Z,101443.38
2023-03-15T12:34:53.177Z,101436.28
2023-03-15T12:37:28.402Z,101436.25
2023-03-15T12:40:00.943Z,101440.50
2023-03-15T12:42:33.365Z,101439.66
2023-03-15T12:45:20.285Z,101444.59
2023-03-15T12:48:08.656Z,101440.41
2023-03-15T12:50:48.019Z,101434.75
2023-03-15T12:53:21.631Z,101439.78
2023-03-15T12:55:50.162Z,101447.56
2023-03-15T12:58:22.798Z,101444.97
2023-03-15T13:00:53.336Z,101440.94
2023-03-15T13:03:22.711Z,101448.25
2023-03-15T13:06:13.507Z,101441.41
2023-03-15T13:08:45.937Z,101448.31
2023-03-15T13:11:30.711Z,101438.28
2023-03-15T13:14:04.503Z,101442.41
2023-03-15T13:16:35.731Z,101442.78
2023-03-15T13:19:37.111Z,101444.28
2023-03-15T13:22:06.241Z,101448.22
2023-03-15T13:25:09.863Z,101454.13
2023-03-15T13:27:50.018Z,101450.25
2023-03-15T13:30:46.505Z,101453.28
2023-03-15T13:33:21.975Z,101445.66
2023-03-15T13:35:56.313Z,101442.59
2023-03-15T13:38:27.192Z,101449.03
2023-03-15T13:40:55.602Z,101452.88
2023-03-15T13:43:33.371Z,101446.50
2023-03-15T13:46:00.509Z,101450.19
2023-03-15T13:48:29.193Z,101455.06
2023-03-15T13:51:01.200Z,101452.47
2023-03-15T13:53:48.700Z,101435.81
2023-03-15T13:56:21.590Z,101445.75
2023-03-15T13:58:50.033Z,101455.69
2023-03-15T14:01:17.819Z,101445.44
2023-03-15T14:03:48.544Z,101457.34
2023-03-15T14:06:23.753Z,101461.59
2023-03-15T14:08:54.734Z,101455.09
2023-03-15T14:11:24.221Z,101447.88
2023-03-15T14:13:59.199Z,101444.63
2023-03-15T14:17:03.497Z,101458.50
2023-03-15T14:19:32.483Z,101457.66
2023-03-15T14:22:01.686Z,101451.00
2023-03-15T14:24:40.946Z,101456.38
2023-03-15T14:27:25.157Z,101456.06
2023-03-15T14:30:00.724Z,101453.88
2023-03-15T14:32:32.325Z,101468.50
2023-03-15T14:35:19.769Z,101469.69
2023-03-15T14:37:47.220Z,101464.75
2023-03-15T14:40:29.086Z,101460.41
2023-03-15T14:42:56.052Z,101470.97
2023-03-15T14:45:23.100Z,101471.69
2023-03-15T14:48:05.526Z,101465.84
2023-03-15T14:50:42.163Z,101466.06
2023-03-15T14:53:12.665Z,101474.50
2023-03-15T14:55:39.157Z,101479.47
2023-03-15T14:58:12.351Z,101485.03
2023-03-15T15:00:39.161Z,101466.94
2023-03-15T15:03:13.835Z,101480.28
2023-03-15T15:05:41.618Z,101486.81
2023-03-15T15:08:13.308Z,101480.94
2023-03-15T15:10:42.471Z,101495.31
2023-03-15T15:13:22.831Z,101491.72
2023-03-15T15:15:55.545Z,101489.72
2023-03-15T15:18:28.297Z,101487.78
2023-03-15T15:20:56.598Z,101499.72
2023-03-15T15:23:29.317Z,101488.19
2023-03-15T15:26:04.227Z,101482.66
2023-03-15T15:28:36.133Z,101474.38
2023-03-15T15:31:05.028Z,101474.75
2023-03-15T15:33:31.707Z,101479.09
2023-03-15T15:35:58.595Z,101474.34
2023-03-15T15:38:32.250Z,101473.97
2023-03-15T15:40:58.835Z,101475.97
2023-03-15T15:43:25.366Z,101481.53
2023-03-15T15:45:51.917Z,101479.53
2023-03-15T15:48:18.635Z,101479.06
2023-03-15T15:50:45.062Z,101480.22
2023-03-15T15:53:15.403Z,101478.66
2023-03-15T15:55:41.914Z,101478.63
2023-03-15T15:58:12.058Z,101474.63
2023-03-15T16:00:38.632Z,101471.06
2023-03-15T16:03:14.860Z,101477.72
2023-03-15T16:05:41.787Z,101477.59
2023-03-15T16:08:36.949Z,101472.81
2023-03-15T16:11:04.928Z,101468.13
2023-03-15T16:13:31.408Z,101478.00
2023-03-15T16:15:58.292Z,101477.22
2023-03-15T16:18:25.426Z,101484.03
2023-03-15T16:20:52.109Z,101466.59
2023-03-15T16:23:22.512Z,101474.47
2023-03-15T16:25:53.932Z,101467.66
2023-03-15T16:28:20.486Z,101478.19
2023-03-15T16:30:47.337Z,101467.00
2023-03-15T16:33:21.515Z,101467.72
2023-03-15T16:35:50.052Z,101472.91
2023-03-15T16:38:24.270Z,101478.00
2023-03-15T16:40:52.959Z,101480.28
2023-03-15T16:43:19.617Z,101490.50
2023-03-15T16:45:46.402Z,101481.69
2023-03-15T16:48:13.190Z,101476.91
2023-03-15T16:50:40.919Z,101476.75
2023-03-15T16:53:12.453Z,101473.44
2023-03-15T16:55:39.714Z,101479.69
2023-03-15T16:58:18.553Z,101485.91
2023-03-15T17:00:47.043Z,101485.50
2023-03-15T17:03:14.567Z,101492.09
2023-03-15T17:05:42.582Z,101494.41
2023-03-15T17:08:13.882Z,101486.41
2023-03-15T17:10:42.118Z,101491.53
2023-03-15T17:13:18.469Z,101502.97
2023-03-15T17:15:45.134Z,101497.78
2023-03-15T17:18:19.395Z,101495.34
2023-03-15T17:20:48.460Z,101498.44
2023-03-15T17:23:23.562Z,101501.53
2023-03-15T17:25:50.861Z,101510.59
2023-03-15T17:28:17.636Z,101496.00
2023-03-15T17:30:44.709Z,101505.69
2023-03-15T17:33:11.415Z,101505.56
2023-03-15T17:35:41.888Z,101506.16
2023-03-15T17:38:17.459Z,101512.75
2023-03-15T17:40:44.103Z,101513.94
2023-03-15T17:43:12.608Z,101522.13
2023-03-15T17:45:39.162Z,101519.53
2023-03-15T17:48:05.897Z,101506.72
2023-03-15T17:50:34.132Z,101518.97
2023-03-15T17:53:03.542Z,101522.16
2023-03-15T17:55:34.323Z,101524.41
2023-03-15T17:58:09.126Z,101533.00
2023-03-15T18:00:35.751Z,101523.06
2023-03-15T18:03:02.496Z,101524.47
2023-03-15T18:05:29.740Z,101521.28
2023-03-15T18:07:59.840Z,101531.03
2023-03-15T18:10:34.172Z,101529.25
2023-03-15T18:13:01.149Z,101531.09
2023-03-15T18:15:27.739Z,101519.06
2023-03-15T18:17:54.281Z,101533.94
2023-03-15T18:20:24.175Z,101530.97
2023-03-15T18:22:50.942Z,101538.38
2023-03-15T18:25:24.299Z,101546.41
2023-03-15T18:27:51.661Z,101532.84
2023-03-15T18:30:20.685Z,101541.44
2023-03-15T18:32:47.640Z,101545.22
2023-03-15T18:35:18.007Z,101556.84
2023-03-15T18:37:45.470Z,101556.69
2023-03-15T18:40:15.155Z,101557.41
2023-03-15T18:42:42.764Z,101565.50
2023-03-15T18:45:32.232Z,101565.28
2023-03-15T18:48:01.995Z,101567.50
2023-03-15T18:50:29.460Z,101566.97
2023-03-15T18:52:56.346Z,101566.72
2023-03-15T18:55:23.456Z,101568.69
2023-03-15T18:57:52.051Z,101558.19
2023-03-15T19:00:26.254Z,101562.47
2023-03-15T19:02:55.395Z,101571.97
2023-03-15T19:05:22.642Z,101571.81
2023-03-15T19:07:49.181Z,101566.81
2023-03-15T19:10:19.079Z,101575.91
2023-03-15T19:12:46.428Z,101580.06
2023-03-15T19:15:17.195Z,101573.31
2023-03-15T19:17:45.360Z,101573.56
2023-03-15T19:20:14.111Z,101576.59
2023-03-15T19:22:41.456Z,101583.34
2023-03-15T19:25:11.567Z,101576.94
2023-03-15T19:27:38.191Z,101575.25
2023-03-15T19:30:07.380Z,101574.19
2023-03-15T19:32:35.886Z,101576.03
2023-03-15T19:35:02.508Z,101572.72
2023-03-15T19:37:29.011Z,101571.84
2023-03-15T19:39:55.477Z,101578.84
2023-03-15T19:42:21.975Z,101582.75
2023-03-15T19:44:48.449Z,101576.78
2023-03-15T19:47:14.945Z,101573.69
2023-03-15T19:49:41.502Z,101577.97
2023-03-15T19:52:08.060Z,101578.66
2023-03-15T19:54:34.552Z,101580.50
2023-03-15T19:57:01.124Z,101575.25
2023-03-15T19:59:27.707Z,101581.56
2023-03-15T20:01:54.274Z,101581.00
2023-03-15T20:04:20.853Z,101588.81
2023-03-15T20:06:47.320Z,101594.78
2023-03-15T20:09:13.778Z,101597.75
2023-03-15T20:11:40.262Z,101599.09
2023-03-15T20:14:06.770Z,101600.00
2023-03-15T20:16:33.359Z,101602.75
2023-03-15T20:18:59.937Z,101601.97
2023-03-15T20:21:26.437Z,101601.97
2023-03-15T20:23:52.988Z,101609.41
2023-03-15T20:26:20.721Z,101593.88
2023-03-15T20:28:47.314Z,101599.56
2023-03-15T20:31:16.403Z,101605.09
2023-03-15T20:33:43.565Z,101596.41
2023-03-15T20:36:11.144Z,101595.41
2023-03-15T20:38:38.074Z,101591.06
2023-03-15T20:41:06.094Z,101599.94
2023-03-15T20:43:33.185Z,101602.25
2023-03-15T20:46:01.685Z,101597.53
2023-03-15T20:48:29.881Z,101594.56
2023-03-15T20:50:58.040Z,101593.66
2023-03-15T20:53:25.447Z,101596.84
2023-03-15T20:55:51.937Z,101597.75
2023-03-15T20:58:18.405Z,101598.56
2023-03-15T21:00:45.456Z,101595.34
2023-03-15T21:03:13.253Z,101600.75
2023-03-15T21:05:45.042Z,101598.09
2023-03-15T21:08:13.950Z,101591.81
2023-03-15T21:10:40.789Z,101593.88
2023-03-15T21:13:10.061Z,101590.78
2023-03-15T21:15:46.385Z,101595.47
2023-03-15T21:18:17.530Z,101594.78
2023-03-15T21:20:44.443Z,101590.84
2023-03-15T21:23:11.765Z,101583.66
2023-03-15T21:25:38.475Z,101591.47
2023-03-15T21:28:05.273Z,101589.25
2023-03-15T21:30:32.921Z,101580.13
2023-03-15T21:32:59.982Z,101577.91
2023-03-15T21:35:26.697Z,101571.88
2023-03-15T21:37:53.332Z,101568.31
2023-03-15T21:40:19.892Z,101580.56
2023-03-15T21:42:47.782Z,101575.91
2023-03-15T21:45:14.733Z,101570.16
2023-03-15T21:47:41.527Z,101571.75
2023-03-15T21:50:11.116Z,101567.75
2023-03-15T21:52:37.586Z,101562.06
2023-03-15T21:55:04.907Z,101561.81
2023-03-15T21:57:33.695Z,101564.56
2023-03-15T22:00:01.236Z,101573.97
2023-03-15T22:02:27.800Z,101573.16
2023-03-15T22:04:54.294Z,101573.16
2023-03-15T22:07:20.790Z,101563.31
2023-03-15T22:09:47.268Z,101564.25
2023-03-15T22:12:15.471Z,101561.88
2023-03-15T22:14:42.248Z,101551.56
2023-03-15T22:17:08.875Z,101563.13
2023-03-15T22:19:37.762Z,101558.09
2023-03-15T22:22:04.787Z,101557.91
2023-03-15T22:24:33.942Z,101552.88
2023-03-15T22:27:00.641Z,101550.25
2023-03-15T22:29:27.539Z,101556.84
2023-03-15T22:31:54.100Z,101559.41
2023-03-15T22:34:20.587Z,101554.63
2023-03-15T22:36:47.048Z,101550.41
2023-03-15T22:39:14.334Z,101546.38
2023-03-15T22:41:40.838Z,101539.97
2023-03-15T22:44:07.412Z,101543.97
2023-03-15T22:46:35.273Z,101542.50
2023-03-15T22:49:02.254Z,101550.97
2023-03-15T22:51:28.835Z,101543.53
2023-03-15T22:53:55.387Z,101536.44
2023-03-15T22:56:21.882Z,101534.47
2023-03-15T22:58:48.767Z,101527.81
2023-03-15T23:01:15.409Z,101528.97
2023-03-15T23:03:42.039Z,101531.72
2023-03-15T23:06:08.563Z,101539.31
2023-03-15T23:08:35.070Z,101530.97
2023-03-15T23:11:01.550Z,101535.44
2023-03-15T23:13:28.006Z,101528.91
2023-03-15T23:15:54.516Z,101536.31
2023-03-15T23:18:22.076Z,101543.75
2023-03-15T23:20:48.535Z,101542.28
2023-03-15T23:23:15.038Z,101541.69
2023-03-15T23:25:41.577Z,101540.44
2023-03-15T23:28:08.117Z,101552.81
2023-03-15T23:30:36.197Z,101545.25
2023-03-15T23:33:03.672Z,101540.09
2023-03-15T23:35:31.437Z,101543.53
2023-03-15T23:37:58.012Z,101541.59
2023-03-15T23:40:25.739Z,101544.69
2023-03-15T23:42:58.863Z,101534.06
2023-03-15T23:45:27.653Z,101530.75
2023-03-15T23:47:54.195Z,101551.47
2023-03-15T23:50:21.161Z,101548.81
2023-03-15T23:52:47.608Z,101548.16
2023-03-15T23:55:14.138Z,101550.41
2023-03-15T23:57:41.434Z,101538.53
